Portada
METAR-TAF:

METAR-TAF

Aeroports :

Tulcea, Romania

latitud: 45-11N, longitud: 028-49E, altitud: 4 m

Observació

L'informe es va fer fa 30 minuts, a les 05:30 UTC
Vent 4 kt del Sud-Est, variant entre Est i Sud
Temperatura 18°C
Humitat 52%
Pressió 1007 hPa
Visibilitat 10 km o més
sense núvols per sota de 1500 mi sense presència de cumulonimbus.

METAR: LRTC 040530Z 14004KT 100V190 CAVOK 18/08 Q1007

Hora: 09:00 (06:00 UTC)

Pronòstic

L'informe es va fer fa 1 hora i 0 minuts, a les 05:00 UTC
Pronòstic vàlid del 04 a les 06 UTC al 04 a les 15 UTC
Vent 6 kt del Sud/Sud-Est
Visibilitat 10 km o més
sense núvols per sota de 1500 mi sense presència de cumulonimbus.
Evolucionant progressivament
l' 04 a les 07 UTC al 04 a les 09 UTC
Vent 14 kt del Sud-Oest
Probabilitat 40% :
Temporalment
l' 04 a les 08 UTC al 04 a les 14 UTC
Núvols disperses a una alçada de 4000 ft, Cumulonimbus.

TAF: LRTC 040500Z 0406/0415 16006KT CAVOK BECMG 0407/0409 22014KT PROB40 TEMPO 0408/0414 SCT040CB

Observacions i pronòstics meteorològics de més de 4000 aeroports (METAR i TAF).

Les estacions disponibles són els punts grocs i vermells al mapa.

Posi el ratolí al punt desitjat per veure el nom de l'estació.

Feu clic per veure les observacions i els pronòstics meteorològics.

Per canviar el mapa: feu clic els botons verds amb una creu de color negre per apropar; al botó verd amb un guió per allunyar la imatge; o en les fletxes verdes per a mapes adjacents.


METAR-TAF: